City Of Chicago — WDC2646 — position and weather

sailwx.info

Track history (hours):
 
Tides and Currents Weather Stations Pressure Air Temp Water Temp Dewpoint Dewpoint Depression Visibility Wind Speed Wind Dir Waves Ship Positions

City Of Chicago

Owner: Kirby Inland Marine LP, Houston, TX. More information available from US FCC via Universal Licensing System and Coast Guard Vessel Documentation Center.

Last reported at 2017-Dec-17 06:03 UTC. Time now 2018-Jan-18 07:58 UTC.
Position N 32°40' W 091°08'.
Warning: this ship's position is 32 days out of date.

Length 43 m; draft 2.7 m.

Type: . MMSI: 366995960.

Date/timePositionNaut miles runAvg speedWind from/ knotsBaromVisibWave heightAir tempDewpointWater temp
2017-Dec-17 06:03N 32°40' W 091°08'0 4.3
2017-Dec-17 05:59N 32°40' W 091°08'2 3.9
2017-Dec-17 05:30N 32°38' W 091°09'0 0.0
2017-Dec-17 05:00N 32°38' W 091°09'1 2.4
2017-Dec-17 04:30N 32°37' W 091°09'2 4.2
2017-Dec-17 04:00N 32°35' W 091°08'2 4.2
2017-Dec-17 03:30N 32°34' W 091°06'2 3.9
2017-Dec-17 03:00N 32°32' W 091°06'2 4.7
2017-Dec-17 02:30N 32°30' W 091°07'2 4.5
2017-Dec-17 02:00N 32°28' W 091°06'2 4.7
2017-Dec-17 01:30N 32°26' W 091°04'2 4.5
2017-Dec-17 01:00N 32°26' W 091°01'2 3.7
2017-Dec-17 00:30N 32°24' W 090°59'2 4.0
2017-Dec-17 00:00N 32°22' W 091°00'0 0.6
2017-Dec-16 23:30N 32°22' W 091°00'1 2.1
2017-Dec-16 23:00N 32°21' W 090°60'2 3.5
2017-Dec-16 22:30N 32°21' W 090°58'1 2.1
2017-Dec-16 22:00N 32°21' W 090°56'2 3.8
2017-Dec-16 21:30N 32°20' W 090°54'2 3.2
2017-Dec-16 21:00N 32°19' W 090°54'1 2.3
2017-Dec-16 20:30N 32°18' W 090°55'2 4.3
2017-Dec-16 20:00N 32°16' W 090°57'2 4.1
2017-Dec-16 19:30N 32°15' W 090°59'2 4.2
2017-Dec-16 19:00N 32°13' W 090°59'2 4.7
2017-Dec-16 18:30N 32°11' W 091°00'2 4.2
2017-Dec-16 18:00N 32°08' W 091°00'2 3.9
2017-Dec-16 17:30N 32°07' W 091°02'2 3.7
2017-Dec-16 16:55N 32°08' W 091°04'1 3.3
2017-Dec-16 16:30N 32°08' W 091°06'5 3.9
2017-Dec-16 15:17N 32°04' W 091°03'1 3.9
2017-Dec-16 15:00N 32°03' W 091°04'2 4.8
2017-Dec-16 14:30N 32°01' W 091°05'6 4.0
2017-Dec-16 13:08N 31°58' W 091°11'1 4.4
2017-Dec-16 12:59N 31°58' W 091°11'  
2017-Dec-13 16:56N 31°42' W 091°24'12 7.9
2017-Dec-13 15:27N 31°51' W 091°17'6 7.9
2017-Dec-13 14:39N 31°56' W 091°12'1 4.7
2017-Dec-13 14:29N 31°57' W 091°12'5 8.0
2017-Dec-13 13:50N 31°59' W 091°06'3 8.7
2017-Dec-13 13:29N 32°02' W 091°04'4 8.3
2017-Dec-13 12:59N 32°06' W 091°05'2 4.8
2017-Dec-13 12:29N 32°08' W 091°04'4 7.4
2017-Dec-13 12:00N 32°09' W 091°00'5 9.4
2017-Dec-13 11:30N 32°13' W 090°59'4 8.9
2017-Dec-13 11:00N 32°17' W 090°56'4 7.2
2017-Dec-13 10:30N 32°21' W 090°55'4 8.8
2017-Dec-13 10:00N 32°21' W 090°60'4 8.0
2017-Dec-13 09:30N 32°25' W 091°00'5 9.2
2017-Dec-13 09:00N 32°27' W 091°05'4 8.5
2017-Dec-13 08:30N 32°31' W 091°06'4 8.5
2017-Dec-13 08:00N 32°35' W 091°08'4 8.6
2017-Dec-13 07:30N 32°40' W 091°08'  
Track history (hours):
 
Tides and Currents Weather Stations Pressure Air Temp Water Temp Dewpoint Dewpoint Depression Visibility Wind Speed Wind Dir Waves Ship Positions

City Of Chicago

Owner: Kirby Inland Marine LP, Houston, TX. More information available from US FCC via Universal Licensing System and Coast Guard Vessel Documentation Center.

Last reported at 2017-Dec-17 06:03 UTC. Time now 2018-Jan-18 07:58 UTC.
Position N 32°40' W 091°08'.
Warning: this ship's position is 32 days out of date.

Length 43 m; draft 2.7 m.

Type: . MMSI: 366995960.

Date/timePositionNaut miles runAvg speedWind from/ knotsBaromVisibWave heightAir tempDewpointWater temp
2017-Dec-17 06:03N 32°40' W 091°08'0 4.3
2017-Dec-17 05:59N 32°40' W 091°08'2 3.9
2017-Dec-17 05:30N 32°38' W 091°09'0 0.0
2017-Dec-17 05:00N 32°38' W 091°09'1 2.4
2017-Dec-17 04:30N 32°37' W 091°09'2 4.2
2017-Dec-17 04:00N 32°35' W 091°08'2 4.2
2017-Dec-17 03:30N 32°34' W 091°06'2 3.9
2017-Dec-17 03:00N 32°32' W 091°06'2 4.7
2017-Dec-17 02:30N 32°30' W 091°07'2 4.5
2017-Dec-17 02:00N 32°28' W 091°06'2 4.7
2017-Dec-17 01:30N 32°26' W 091°04'2 4.5
2017-Dec-17 01:00N 32°26' W 091°01'2 3.7
2017-Dec-17 00:30N 32°24' W 090°59'2 4.0
2017-Dec-17 00:00N 32°22' W 091°00'0 0.6
2017-Dec-16 23:30N 32°22' W 091°00'1 2.1
2017-Dec-16 23:00N 32°21' W 090°60'2 3.5
2017-Dec-16 22:30N 32°21' W 090°58'1 2.1
2017-Dec-16 22:00N 32°21' W 090°56'2 3.8
2017-Dec-16 21:30N 32°20' W 090°54'2 3.2
2017-Dec-16 21:00N 32°19' W 090°54'1 2.3
2017-Dec-16 20:30N 32°18' W 090°55'2 4.3
2017-Dec-16 20:00N 32°16' W 090°57'2 4.1
2017-Dec-16 19:30N 32°15' W 090°59'2 4.2
2017-Dec-16 19:00N 32°13' W 090°59'2 4.7
2017-Dec-16 18:30N 32°11' W 091°00'2 4.2
2017-Dec-16 18:00N 32°08' W 091°00'2 3.9
2017-Dec-16 17:30N 32°07' W 091°02'2 3.7
2017-Dec-16 16:55N 32°08' W 091°04'1 3.3
2017-Dec-16 16:30N 32°08' W 091°06'5 3.9
2017-Dec-16 15:17N 32°04' W 091°03'1 3.9
2017-Dec-16 15:00N 32°03' W 091°04'2 4.8
2017-Dec-16 14:30N 32°01' W 091°05'6 4.0
2017-Dec-16 13:08N 31°58' W 091°11'1 4.4
2017-Dec-16 12:59N 31°58' W 091°11'  
2017-Dec-13 16:56N 31°42' W 091°24'12 7.9
2017-Dec-13 15:27N 31°51' W 091°17'6 7.9
2017-Dec-13 14:39N 31°56' W 091°12'1 4.7
2017-Dec-13 14:29N 31°57' W 091°12'5 8.0
2017-Dec-13 13:50N 31°59' W 091°06'3 8.7
2017-Dec-13 13:29N 32°02' W 091°04'4 8.3
2017-Dec-13 12:59N 32°06' W 091°05'2 4.8
2017-Dec-13 12:29N 32°08' W 091°04'4 7.4
2017-Dec-13 12:00N 32°09' W 091°00'5 9.4
2017-Dec-13 11:30N 32°13' W 090°59'4 8.9
2017-Dec-13 11:00N 32°17' W 090°56'4 7.2
2017-Dec-13 10:30N 32°21' W 090°55'4 8.8
2017-Dec-13 10:00N 32°21' W 090°60'4 8.0
2017-Dec-13 09:30N 32°25' W 091°00'5 9.2
2017-Dec-13 09:00N 32°27' W 091°05'4 8.5
2017-Dec-13 08:30N 32°31' W 091°06'4 8.5
2017-Dec-13 08:00N 32°35' W 091°08'4 8.6
2017-Dec-13 07:30N 32°40' W 091°08'  

Dump ship's entire track history